sensor_id;sensor_type;location;lat;lon;timestamp;P1;durP1;ratioP1;P2;durP2;ratioP2
49422;SDS011;36998;51.974;20.150;2022-12-07T00:00:01;18.45;;;7.80;;
49422;SDS011;36998;51.974;20.150;2022-12-07T00:02:30;22.25;;;7.35;;
49422;SDS011;36998;51.974;20.150;2022-12-07T00:04:56;16.83;;;7.18;;
49422;SDS011;36998;51.974;20.150;2022-12-07T00:07:21;18.40;;;8.07;;
49422;SDS011;36998;51.974;20.150;2022-12-07T00:09:47;19.55;;;8.20;;
49422;SDS011;36998;51.974;20.150;2022-12-07T00:12:12;19.92;;;7.55;;
49422;SDS011;36998;51.974;20.150;2022-12-07T00:14:38;22.83;;;9.20;;
49422;SDS011;36998;51.974;20.150;2022-12-07T00:17:03;21.75;;;9.65;;
49422;SDS011;36998;51.974;20.150;2022-12-07T00:19:29;19.35;;;8.20;;
49422;SDS011;36998;51.974;20.150;2022-12-07T00:21:54;18.05;;;7.97;;
49422;SDS011;36998;51.974;20.150;2022-12-07T00:24:20;14.82;;;8.30;;
49422;SDS011;36998;51.974;20.150;2022-12-07T00:26:46;18.67;;;7.90;;
49422;SDS011;36998;51.974;20.150;2022-12-07T00:29:16;18.38;;;7.35;;
49422;SDS011;36998;51.974;20.150;2022-12-07T00:31:43;20.83;;;8.82;;
49422;SDS011;36998;51.974;20.150;2022-12-07T00:34:12;21.50;;;8.50;;
49422;SDS011;36998;51.974;20.150;2022-12-07T00:36:41;18.00;;;8.40;;
49422;SDS011;36998;51.974;20.150;2022-12-07T00:39:06;20.35;;;9.77;;
49422;SDS011;36998;51.974;20.150;2022-12-07T00:41:32;22.75;;;10.02;;
49422;SDS011;36998;51.974;20.150;2022-12-07T00:43:57;25.45;;;11.43;;
49422;SDS011;36998;51.974;20.150;2022-12-07T00:46:23;24.50;;;12.60;;
49422;SDS011;36998;51.974;20.150;2022-12-07T00:48:50;32.50;;;13.77;;
49422;SDS011;36998;51.974;20.150;2022-12-07T00:51:18;25.73;;;11.82;;
49422;SDS011;36998;51.974;20.150;2022-12-07T00:53:45;24.48;;;11.02;;
49422;SDS011;36998;51.974;20.150;2022-12-07T00:56:13;26.58;;;12.15;;
49422;SDS011;36998;51.974;20.150;2022-12-07T00:58:40;21.98;;;11.80;;
49422;SDS011;36998;51.974;20.150;2022-12-07T01:01:06;24.85;;;11.57;;
49422;SDS011;36998;51.974;20.150;2022-12-07T01:03:33;25.67;;;12.45;;
49422;SDS011;36998;51.974;20.150;2022-12-07T01:06:00;20.95;;;10.82;;
49422;SDS011;36998;51.974;20.150;2022-12-07T01:08:26;24.58;;;11.77;;
49422;SDS011;36998;51.974;20.150;2022-12-07T01:11:03;22.13;;;11.60;;
49422;SDS011;36998;51.974;20.150;2022-12-07T01:13:31;21.95;;;11.05;;
49422;SDS011;36998;51.974;20.150;2022-12-07T01:15:58;29.70;;;12.40;;
49422;SDS011;36998;51.974;20.150;2022-12-07T01:18:26;25.17;;;10.77;;
49422;SDS011;36998;51.974;20.150;2022-12-07T01:21:00;27.55;;;11.38;;
49422;SDS011;36998;51.974;20.150;2022-12-07T01:23:26;23.35;;;12.10;;
49422;SDS011;36998;51.974;20.150;2022-12-07T01:26:00;26.88;;;11.30;;
49422;SDS011;36998;51.974;20.150;2022-12-07T01:28:27;23.80;;;11.77;;
49422;SDS011;36998;51.974;20.150;2022-12-07T01:31:02;23.70;;;10.77;;
49422;SDS011;36998;51.974;20.150;2022-12-07T01:33:31;17.38;;;8.65;;
49422;SDS011;36998;51.974;20.150;2022-12-07T01:36:05;25.77;;;11.02;;
49422;SDS011;36998;51.974;20.150;2022-12-07T01:38:31;19.13;;;9.38;;
49422;SDS011;36998;51.974;20.150;2022-12-07T01:40:58;22.20;;;10.88;;
49422;SDS011;36998;51.974;20.150;2022-12-07T01:43:25;21.30;;;10.13;;
49422;SDS011;36998;51.974;20.150;2022-12-07T01:45:52;21.13;;;10.18;;
49422;SDS011;36998;51.974;20.150;2022-12-07T01:48:20;22.17;;;11.13;;
49422;SDS011;36998;51.974;20.150;2022-12-07T01:50:50;23.13;;;9.57;;
49422;SDS011;36998;51.974;20.150;2022-12-07T01:53:18;25.13;;;10.30;;
49422;SDS011;36998;51.974;20.150;2022-12-07T01:55:45;23.25;;;11.00;;
49422;SDS011;36998;51.974;20.150;2022-12-07T01:58:12;23.23;;;10.82;;
49422;SDS011;36998;51.974;20.150;2022-12-07T02:00:39;28.65;;;12.15;;
49422;SDS011;36998;51.974;20.150;2022-12-07T02:03:07;23.80;;;11.30;;
49422;SDS011;36998;51.974;20.150;2022-12-07T02:05:38;32.10;;;12.82;;
49422;SDS011;36998;51.974;20.150;2022-12-07T02:08:06;28.02;;;12.48;;
49422;SDS011;36998;51.974;20.150;2022-12-07T02:10:33;31.33;;;12.45;;
49422;SDS011;36998;51.974;20.150;2022-12-07T02:13:01;30.90;;;12.82;;
49422;SDS011;36998;51.974;20.150;2022-12-07T02:15:38;28.75;;;12.60;;
49422;SDS011;36998;51.974;20.150;2022-12-07T02:34:40;35.47;;;13.43;;
49422;SDS011;36998;51.974;20.150;2022-12-07T02:37:34;32.33;;;12.30;;
49422;SDS011;36998;51.974;20.150;2022-12-07T02:40:17;26.25;;;12.05;;
49422;SDS011;36998;51.974;20.150;2022-12-07T02:42:51;26.38;;;11.95;;
49422;SDS011;36998;51.974;20.150;2022-12-07T02:45:22;26.20;;;12.45;;
49422;SDS011;36998;51.974;20.150;2022-12-07T02:47:53;30.55;;;11.88;;
49422;SDS011;36998;51.974;20.150;2022-12-07T02:50:22;34.42;;;13.98;;
49422;SDS011;36998;51.974;20.150;2022-12-07T02:52:47;35.97;;;13.48;;
49422;SDS011;36998;51.974;20.150;2022-12-07T02:55:13;32.20;;;12.80;;
49422;SDS011;36998;51.974;20.150;2022-12-07T02:57:49;35.53;;;13.57;;
49422;SDS011;36998;51.974;20.150;2022-12-07T03:00:22;30.65;;;13.13;;
49422;SDS011;36998;51.974;20.150;2022-12-07T03:02:53;30.48;;;13.27;;
49422;SDS011;36998;51.974;20.150;2022-12-07T03:10:56;35.00;;;13.80;;
49422;SDS011;36998;51.974;20.150;2022-12-07T03:13:42;33.22;;;13.05;;
49422;SDS011;36998;51.974;20.150;2022-12-07T03:16:16;29.92;;;12.05;;
49422;SDS011;36998;51.974;20.150;2022-12-07T03:18:54;31.70;;;12.63;;
49422;SDS011;36998;51.974;20.150;2022-12-07T03:21:23;29.52;;;11.02;;
49422;SDS011;36998;51.974;20.150;2022-12-07T03:23:57;33.88;;;13.23;;
49422;SDS011;36998;51.974;20.150;2022-12-07T03:26:28;30.02;;;13.27;;
49422;SDS011;36998;51.974;20.150;2022-12-07T03:29:00;34.35;;;13.45;;
49422;SDS011;36998;51.974;20.150;2022-12-07T03:31:36;31.67;;;12.52;;
49422;SDS011;36998;51.974;20.150;2022-12-07T03:34:10;32.75;;;13.13;;
49422;SDS011;36998;51.974;20.150;2022-12-07T03:36:55;34.38;;;13.18;;
49422;SDS011;36998;51.974;20.150;2022-12-07T03:39:30;31.83;;;12.88;;
49422;SDS011;36998;51.974;20.150;2022-12-07T03:42:14;33.00;;;12.27;;
49422;SDS011;36998;51.974;20.150;2022-12-07T03:44:41;38.15;;;12.95;;
49422;SDS011;36998;51.974;20.150;2022-12-07T03:49:59;32.15;;;12.82;;
49422;SDS011;36998;51.974;20.150;2022-12-07T03:52:32;30.92;;;13.23;;
49422;SDS011;36998;51.974;20.150;2022-12-07T03:55:13;32.28;;;13.88;;
49422;SDS011;36998;51.974;20.150;2022-12-07T03:57:44;34.75;;;14.63;;
49422;SDS011;36998;51.974;20.150;2022-12-07T04:00:14;27.08;;;12.00;;
49422;SDS011;36998;51.974;20.150;2022-12-07T04:02:39;32.00;;;12.63;;
49422;SDS011;36998;51.974;20.150;2022-12-07T04:05:06;30.88;;;12.15;;
49422;SDS011;36998;51.974;20.150;2022-12-07T04:07:33;30.42;;;12.50;;
49422;SDS011;36998;51.974;20.150;2022-12-07T04:09:58;35.75;;;12.65;;
49422;SDS011;36998;51.974;20.150;2022-12-07T04:12:24;31.05;;;12.65;;
49422;SDS011;36998;51.974;20.150;2022-12-07T04:14:49;30.55;;;12.73;;
49422;SDS011;36998;51.974;20.150;2022-12-07T04:17:15;36.00;;;13.07;;
49422;SDS011;36998;51.974;20.150;2022-12-07T04:19:40;33.45;;;13.00;;
49422;SDS011;36998;51.974;20.150;2022-12-07T04:22:06;38.95;;;14.05;;
49422;SDS011;36998;51.974;20.150;2022-12-07T04:24:32;34.60;;;13.45;;
49422;SDS011;36998;51.974;20.150;2022-12-07T04:26:59;33.22;;;12.40;;
49422;SDS011;36998;51.974;20.150;2022-12-07T04:29:25;38.72;;;13.07;;
49422;SDS011;36998;51.974;20.150;2022-12-07T04:31:51;34.95;;;12.30;;
49422;SDS011;36998;51.974;20.150;2022-12-07T04:34:17;30.25;;;13.27;;
49422;SDS011;36998;51.974;20.150;2022-12-07T04:36:43;29.35;;;12.70;;
49422;SDS011;36998;51.974;20.150;2022-12-07T04:39:20;32.70;;;13.07;;
49422;SDS011;36998;51.974;20.150;2022-12-07T04:41:50;30.40;;;12.18;;
49422;SDS011;36998;51.974;20.150;2022-12-07T04:44:16;32.17;;;13.48;;
49422;SDS011;36998;51.974;20.150;2022-12-07T04:46:42;31.08;;;12.18;;
49422;SDS011;36998;51.974;20.150;2022-12-07T04:49:08;38.42;;;12.90;;
49422;SDS011;36998;51.974;20.150;2022-12-07T04:51:34;27.50;;;12.52;;
49422;SDS011;36998;51.974;20.150;2022-12-07T04:54:00;31.08;;;12.02;;
49422;SDS011;36998;51.974;20.150;2022-12-07T04:56:26;29.67;;;11.75;;
49422;SDS011;36998;51.974;20.150;2022-12-07T04:58:52;33.33;;;13.02;;
49422;SDS011;36998;51.974;20.150;2022-12-07T05:01:19;42.45;;;16.90;;
49422;SDS011;36998;51.974;20.150;2022-12-07T05:03:46;31.33;;;13.40;;
49422;SDS011;36998;51.974;20.150;2022-12-07T05:06:12;24.25;;;10.48;;
49422;SDS011;36998;51.974;20.150;2022-12-07T05:08:38;24.73;;;10.90;;
49422;SDS011;36998;51.974;20.150;2022-12-07T05:11:04;21.95;;;10.10;;
49422;SDS011;36998;51.974;20.150;2022-12-07T05:13:31;24.02;;;10.15;;
49422;SDS011;36998;51.974;20.150;2022-12-07T05:15:57;27.20;;;11.20;;
49422;SDS011;36998;51.974;20.150;2022-12-07T05:18:23;30.83;;;12.80;;
49422;SDS011;36998;51.974;20.150;2022-12-07T05:20:48;31.02;;;13.15;;
49422;SDS011;36998;51.974;20.150;2022-12-07T05:23:16;22.00;;;11.15;;
49422;SDS011;36998;51.974;20.150;2022-12-07T05:25:44;26.90;;;11.63;;
49422;SDS011;36998;51.974;20.150;2022-12-07T05:28:10;26.73;;;10.63;;
49422;SDS011;36998;51.974;20.150;2022-12-07T05:30:37;24.30;;;10.80;;
49422;SDS011;36998;51.974;20.150;2022-12-07T05:33:03;26.15;;;12.57;;
49422;SDS011;36998;51.974;20.150;2022-12-07T05:35:28;25.50;;;10.52;;
49422;SDS011;36998;51.974;20.150;2022-12-07T05:37:54;24.20;;;10.68;;
49422;SDS011;36998;51.974;20.150;2022-12-07T05:40:21;23.05;;;10.35;;
49422;SDS011;36998;51.974;20.150;2022-12-07T05:42:46;16.05;;;9.02;;
49422;SDS011;36998;51.974;20.150;2022-12-07T05:45:12;16.42;;;8.20;;
49422;SDS011;36998;51.974;20.150;2022-12-07T05:47:38;17.50;;;7.93;;
49422;SDS011;36998;51.974;20.150;2022-12-07T05:50:04;15.60;;;8.15;;
49422;SDS011;36998;51.974;20.150;2022-12-07T05:52:31;16.63;;;7.55;;
49422;SDS011;36998;51.974;20.150;2022-12-07T05:54:56;16.55;;;7.10;;
49422;SDS011;36998;51.974;20.150;2022-12-07T05:57:22;14.73;;;8.32;;
49422;SDS011;36998;51.974;20.150;2022-12-07T05:59:47;17.98;;;7.65;;
49422;SDS011;36998;51.974;20.150;2022-12-07T06:02:13;15.68;;;7.68;;
49422;SDS011;36998;51.974;20.150;2022-12-07T06:04:41;17.85;;;8.20;;
49422;SDS011;36998;51.974;20.150;2022-12-07T06:07:08;13.68;;;7.20;;
49422;SDS011;36998;51.974;20.150;2022-12-07T06:09:35;18.83;;;8.27;;
49422;SDS011;36998;51.974;20.150;2022-12-07T06:12:01;13.25;;;7.65;;
49422;SDS011;36998;51.974;20.150;2022-12-07T06:14:46;17.77;;;8.52;;
49422;SDS011;36998;51.974;20.150;2022-12-07T06:17:12;17.70;;;8.20;;
49422;SDS011;36998;51.974;20.150;2022-12-07T06:19:38;17.67;;;8.05;;
49422;SDS011;36998;51.974;20.150;2022-12-07T06:22:04;20.50;;;8.25;;
49422;SDS011;36998;51.974;20.150;2022-12-07T06:24:30;24.10;;;8.02;;
49422;SDS011;36998;51.974;20.150;2022-12-07T06:26:57;14.13;;;7.05;;
49422;SDS011;36998;51.974;20.150;2022-12-07T06:29:23;13.25;;;6.63;;
49422;SDS011;36998;51.974;20.150;2022-12-07T06:31:48;16.17;;;6.88;;
49422;SDS011;36998;51.974;20.150;2022-12-07T06:34:18;14.75;;;6.05;;
49422;SDS011;36998;51.974;20.150;2022-12-07T06:36:46;14.00;;;5.85;;
49422;SDS011;36998;51.974;20.150;2022-12-07T06:39:16;16.05;;;6.57;;
49422;SDS011;36998;51.974;20.150;2022-12-07T06:41:45;15.68;;;5.63;;
49422;SDS011;36998;51.974;20.150;2022-12-07T06:44:11;17.67;;;7.97;;
49422;SDS011;36998;51.974;20.150;2022-12-07T06:46:37;19.92;;;7.80;;
49422;SDS011;36998;51.974;20.150;2022-12-07T06:49:03;17.58;;;8.77;;
49422;SDS011;36998;51.974;20.150;2022-12-07T06:51:30;25.55;;;7.65;;
49422;SDS011;36998;51.974;20.150;2022-12-07T06:53:56;23.88;;;9.23;;
49422;SDS011;36998;51.974;20.150;2022-12-07T06:56:22;26.58;;;9.40;;
49422;SDS011;36998;51.974;20.150;2022-12-07T06:58:48;20.70;;;7.55;;
49422;SDS011;36998;51.974;20.150;2022-12-07T07:01:14;26.75;;;10.32;;
49422;SDS011;36998;51.974;20.150;2022-12-07T07:03:43;23.83;;;9.68;;
49422;SDS011;36998;51.974;20.150;2022-12-07T07:06:09;21.15;;;8.15;;
49422;SDS011;36998;51.974;20.150;2022-12-07T07:08:35;31.80;;;10.07;;
49422;SDS011;36998;51.974;20.150;2022-12-07T07:11:02;26.77;;;9.73;;
49422;SDS011;36998;51.974;20.150;2022-12-07T07:13:28;29.38;;;9.85;;
49422;SDS011;36998;51.974;20.150;2022-12-07T07:15:54;29.13;;;11.70;;
49422;SDS011;36998;51.974;20.150;2022-12-07T07:18:20;37.17;;;11.82;;
49422;SDS011;36998;51.974;20.150;2022-12-07T07:20:45;33.33;;;10.13;;
49422;SDS011;36998;51.974;20.150;2022-12-07T07:23:11;31.08;;;11.15;;
49422;SDS011;36998;51.974;20.150;2022-12-07T07:25:36;38.08;;;11.98;;
49422;SDS011;36998;51.974;20.150;2022-12-07T07:28:02;40.20;;;13.90;;
49422;SDS011;36998;51.974;20.150;2022-12-07T07:30:28;39.00;;;15.02;;
49422;SDS011;36998;51.974;20.150;2022-12-07T07:32:57;38.53;;;13.25;;
49422;SDS011;36998;51.974;20.150;2022-12-07T07:37:49;34.95;;;12.52;;
49422;SDS011;36998;51.974;20.150;2022-12-07T07:40:15;49.63;;;15.25;;
49422;SDS011;36998;51.974;20.150;2022-12-07T07:42:40;38.22;;;13.45;;
49422;SDS011;36998;51.974;20.150;2022-12-07T07:45:06;45.90;;;15.23;;
49422;SDS011;36998;51.974;20.150;2022-12-07T07:47:32;35.95;;;14.20;;
49422;SDS011;36998;51.974;20.150;2022-12-07T07:49:58;49.55;;;14.75;;
49422;SDS011;36998;51.974;20.150;2022-12-07T07:52:23;33.97;;;11.15;;
49422;SDS011;36998;51.974;20.150;2022-12-07T07:54:49;40.95;;;13.95;;
49422;SDS011;36998;51.974;20.150;2022-12-07T07:57:15;33.45;;;11.27;;
49422;SDS011;36998;51.974;20.150;2022-12-07T07:59:42;34.97;;;13.35;;
49422;SDS011;36998;51.974;20.150;2022-12-07T08:02:10;48.67;;;13.00;;
49422;SDS011;36998;51.974;20.150;2022-12-07T08:04:39;41.65;;;13.88;;
49422;SDS011;36998;51.974;20.150;2022-12-07T08:07:05;46.70;;;13.38;;
49422;SDS011;36998;51.974;20.150;2022-12-07T08:09:31;44.15;;;13.35;;
49422;SDS011;36998;51.974;20.150;2022-12-07T08:11:57;38.33;;;12.80;;
49422;SDS011;36998;51.974;20.150;2022-12-07T08:14:23;36.53;;;13.57;;
49422;SDS011;36998;51.974;20.150;2022-12-07T08:16:49;38.75;;;12.25;;
49422;SDS011;36998;51.974;20.150;2022-12-07T08:19:15;33.95;;;12.23;;
49422;SDS011;36998;51.974;20.150;2022-12-07T08:21:40;34.88;;;12.85;;
49422;SDS011;36998;51.974;20.150;2022-12-07T08:24:06;41.65;;;15.15;;
49422;SDS011;36998;51.974;20.150;2022-12-07T08:26:32;34.40;;;14.25;;
49422;SDS011;36998;51.974;20.150;2022-12-07T08:28:58;42.00;;;14.38;;
49422;SDS011;36998;51.974;20.150;2022-12-07T08:31:24;43.83;;;14.70;;
49422;SDS011;36998;51.974;20.150;2022-12-07T08:33:50;37.92;;;14.88;;
49422;SDS011;36998;51.974;20.150;2022-12-07T08:36:16;34.17;;;13.13;;
49422;SDS011;36998;51.974;20.150;2022-12-07T08:38:42;32.58;;;14.75;;
49422;SDS011;36998;51.974;20.150;2022-12-07T08:41:08;22.35;;;10.55;;
49422;SDS011;36998;51.974;20.150;2022-12-07T08:43:34;31.60;;;13.98;;
49422;SDS011;36998;51.974;20.150;2022-12-07T08:46:10;29.48;;;12.30;;
49422;SDS011;36998;51.974;20.150;2022-12-07T08:48:41;31.75;;;10.98;;
49422;SDS011;36998;51.974;20.150;2022-12-07T08:51:10;28.92;;;12.10;;
49422;SDS011;36998;51.974;20.150;2022-12-07T08:53:37;26.60;;;11.70;;
49422;SDS011;36998;51.974;20.150;2022-12-07T08:56:03;32.40;;;12.65;;
49422;SDS011;36998;51.974;20.150;2022-12-07T08:58:31;29.90;;;11.88;;
49422;SDS011;36998;51.974;20.150;2022-12-07T09:00:57;25.35;;;11.75;;
49422;SDS011;36998;51.974;20.150;2022-12-07T09:03:23;30.27;;;12.45;;
49422;SDS011;36998;51.974;20.150;2022-12-07T09:05:49;28.10;;;13.38;;
49422;SDS011;36998;51.974;20.150;2022-12-07T09:08:15;25.20;;;10.80;;
49422;SDS011;36998;51.974;20.150;2022-12-07T09:10:41;25.67;;;10.90;;
49422;SDS011;36998;51.974;20.150;2022-12-07T09:13:06;22.15;;;10.65;;
49422;SDS011;36998;51.974;20.150;2022-12-07T09:15:32;26.17;;;10.88;;
49422;SDS011;36998;51.974;20.150;2022-12-07T09:17:58;25.35;;;10.73;;
49422;SDS011;36998;51.974;20.150;2022-12-07T09:20:24;28.33;;;11.98;;
49422;SDS011;36998;51.974;20.150;2022-12-07T09:22:49;27.52;;;12.07;;
49422;SDS011;36998;51.974;20.150;2022-12-07T09:25:15;19.55;;;9.48;;
49422;SDS011;36998;51.974;20.150;2022-12-07T09:27:40;25.15;;;10.43;;
49422;SDS011;36998;51.974;20.150;2022-12-07T09:30:06;26.88;;;11.15;;
49422;SDS011;36998;51.974;20.150;2022-12-07T09:32:32;31.08;;;13.13;;
49422;SDS011;36998;51.974;20.150;2022-12-07T09:34:58;27.35;;;11.65;;
49422;SDS011;36998;51.974;20.150;2022-12-07T09:37:23;27.92;;;11.10;;
49422;SDS011;36998;51.974;20.150;2022-12-07T09:39:49;27.23;;;12.45;;
49422;SDS011;36998;51.974;20.150;2022-12-07T09:42:19;24.30;;;10.05;;
49422;SDS011;36998;51.974;20.150;2022-12-07T09:44:52;28.90;;;12.40;;
49422;SDS011;36998;51.974;20.150;2022-12-07T09:47:18;22.10;;;9.55;;
49422;SDS011;36998;51.974;20.150;2022-12-07T09:49:44;21.95;;;9.35;;
49422;SDS011;36998;51.974;20.150;2022-12-07T09:52:17;23.55;;;9.88;;
49422;SDS011;36998;51.974;20.150;2022-12-07T09:54:47;21.10;;;9.57;;
49422;SDS011;36998;51.974;20.150;2022-12-07T09:57:14;24.30;;;10.70;;
49422;SDS011;36998;51.974;20.150;2022-12-07T09:59:40;25.95;;;10.07;;
49422;SDS011;36998;51.974;20.150;2022-12-07T10:02:28;21.20;;;9.55;;
49422;SDS011;36998;51.974;20.150;2022-12-07T10:05:10;19.13;;;10.27;;
49422;SDS011;36998;51.974;20.150;2022-12-07T10:07:39;26.02;;;11.45;;
49422;SDS011;36998;51.974;20.150;2022-12-07T10:10:18;25.83;;;12.30;;
49422;SDS011;36998;51.974;20.150;2022-12-07T10:12:57;29.58;;;12.50;;
49422;SDS011;36998;51.974;20.150;2022-12-07T10:18:39;27.38;;;12.13;;
49422;SDS011;36998;51.974;20.150;2022-12-07T10:24:28;23.10;;;10.25;;
49422;SDS011;36998;51.974;20.150;2022-12-07T10:29:23;18.48;;;9.60;;
49422;SDS011;36998;51.974;20.150;2022-12-07T10:31:55;20.45;;;9.50;;
49422;SDS011;36998;51.974;20.150;2022-12-07T10:34:33;22.90;;;11.00;;
49422;SDS011;36998;51.974;20.150;2022-12-07T10:39:47;19.80;;;9.48;;
49422;SDS011;36998;51.974;20.150;2022-12-07T10:44:48;22.95;;;10.02;;
49422;SDS011;36998;51.974;20.150;2022-12-07T10:47:26;20.30;;;9.85;;
49422;SDS011;36998;51.974;20.150;2022-12-07T10:50:17;27.52;;;10.68;;
49422;SDS011;36998;51.974;20.150;2022-12-07T10:52:48;21.85;;;10.48;;
49422;SDS011;36998;51.974;20.150;2022-12-07T11:04:26;22.95;;;9.95;;
49422;SDS011;36998;51.974;20.150;2022-12-07T11:18:50;21.58;;;10.77;;
49422;SDS011;36998;51.974;20.150;2022-12-07T11:21:24;17.50;;;9.57;;
49422;SDS011;36998;51.974;20.150;2022-12-07T11:29:29;16.90;;;9.10;;
49422;SDS011;36998;51.974;20.150;2022-12-07T11:32:14;17.75;;;7.35;;
49422;SDS011;36998;51.974;20.150;2022-12-07T11:37:29;16.13;;;8.10;;
49422;SDS011;36998;51.974;20.150;2022-12-07T11:40:45;14.88;;;8.40;;
49422;SDS011;36998;51.974;20.150;2022-12-07T11:45:42;18.23;;;8.50;;
49422;SDS011;36998;51.974;20.150;2022-12-07T11:48:20;17.48;;;9.00;;
49422;SDS011;36998;51.974;20.150;2022-12-07T11:50:51;18.65;;;8.77;;
49422;SDS011;36998;51.974;20.150;2022-12-07T11:53:24;14.77;;;7.55;;
49422;SDS011;36998;51.974;20.150;2022-12-07T11:56:03;19.63;;;8.35;;
49422;SDS011;36998;51.974;20.150;2022-12-07T12:03:49;15.40;;;8.55;;
49422;SDS011;36998;51.974;20.150;2022-12-07T12:06:17;16.80;;;8.93;;
49422;SDS011;36998;51.974;20.150;2022-12-07T12:14:30;16.92;;;9.18;;
49422;SDS011;36998;51.974;20.150;2022-12-07T12:17:07;19.00;;;10.25;;
49422;SDS011;36998;51.974;20.150;2022-12-07T12:22:46;16.52;;;9.25;;
49422;SDS011;36998;51.974;20.150;2022-12-07T12:25:22;18.38;;;10.10;;
49422;SDS011;36998;51.974;20.150;2022-12-07T12:27:52;17.15;;;10.07;;
49422;SDS011;36998;51.974;20.150;2022-12-07T12:30:36;18.47;;;10.00;;
49422;SDS011;36998;51.974;20.150;2022-12-07T12:33:20;17.13;;;10.02;;
49422;SDS011;36998;51.974;20.150;2022-12-07T12:46:53;19.25;;;10.20;;
49422;SDS011;36998;51.974;20.150;2022-12-07T12:51:53;19.60;;;10.57;;
49422;SDS011;36998;51.974;20.150;2022-12-07T12:54:23;20.90;;;11.63;;
49422;SDS011;36998;51.974;20.150;2022-12-07T12:56:52;17.90;;;9.85;;
49422;SDS011;36998;51.974;20.150;2022-12-07T13:05:14;21.27;;;12.07;;
49422;SDS011;36998;51.974;20.150;2022-12-07T13:10:54;17.33;;;9.27;;
49422;SDS011;36998;51.974;20.150;2022-12-07T13:15:41;18.13;;;10.02;;
49422;SDS011;36998;51.974;20.150;2022-12-07T13:20:55;15.40;;;9.02;;
49422;SDS011;36998;51.974;20.150;2022-12-07T13:31:14;19.15;;;10.13;;
49422;SDS011;36998;51.974;20.150;2022-12-07T13:33:44;19.10;;;10.50;;
49422;SDS011;36998;51.974;20.150;2022-12-07T13:36:21;16.75;;;8.75;;
49422;SDS011;36998;51.974;20.150;2022-12-07T13:41:20;20.52;;;10.45;;
49422;SDS011;36998;51.974;20.150;2022-12-07T13:44:07;17.25;;;9.85;;
49422;SDS011;36998;51.974;20.150;2022-12-07T13:47:22;18.47;;;10.23;;
49422;SDS011;36998;51.974;20.150;2022-12-07T13:49:51;18.55;;;10.57;;
49422;SDS011;36998;51.974;20.150;2022-12-07T13:52:29;20.55;;;11.18;;
49422;SDS011;36998;51.974;20.150;2022-12-07T13:57:31;20.25;;;10.93;;
49422;SDS011;36998;51.974;20.150;2022-12-07T14:00:06;25.95;;;11.98;;
49422;SDS011;36998;51.974;20.150;2022-12-07T14:05:30;26.63;;;13.25;;
49422;SDS011;36998;51.974;20.150;2022-12-07T14:08:01;22.63;;;12.45;;
49422;SDS011;36998;51.974;20.150;2022-12-07T14:10:30;23.48;;;11.98;;
49422;SDS011;36998;51.974;20.150;2022-12-07T14:16:18;29.60;;;12.60;;
49422;SDS011;36998;51.974;20.150;2022-12-07T14:18:57;25.63;;;12.00;;
49422;SDS011;36998;51.974;20.150;2022-12-07T14:21:26;23.40;;;11.65;;
49422;SDS011;36998;51.974;20.150;2022-12-07T14:24:04;27.13;;;12.65;;
49422;SDS011;36998;51.974;20.150;2022-12-07T14:26:36;27.00;;;11.98;;
49422;SDS011;36998;51.974;20.150;2022-12-07T14:31:47;30.55;;;12.90;;
49422;SDS011;36998;51.974;20.150;2022-12-07T14:34:13;25.33;;;12.07;;
49422;SDS011;36998;51.974;20.150;2022-12-07T14:36:39;25.15;;;12.40;;
49422;SDS011;36998;51.974;20.150;2022-12-07T14:39:05;24.75;;;11.77;;
49422;SDS011;36998;51.974;20.150;2022-12-07T14:41:30;25.30;;;12.60;;
49422;SDS011;36998;51.974;20.150;2022-12-07T14:44:15;29.33;;;11.85;;
49422;SDS011;36998;51.974;20.150;2022-12-07T14:46:40;26.25;;;11.38;;
49422;SDS011;36998;51.974;20.150;2022-12-07T14:49:06;19.25;;;10.48;;
49422;SDS011;36998;51.974;20.150;2022-12-07T14:51:31;25.92;;;12.38;;
49422;SDS011;36998;51.974;20.150;2022-12-07T14:53:58;20.05;;;10.15;;
49422;SDS011;36998;51.974;20.150;2022-12-07T14:56:24;29.42;;;13.15;;
49422;SDS011;36998;51.974;20.150;2022-12-07T14:58:50;34.58;;;15.07;;
49422;SDS011;36998;51.974;20.150;2022-12-07T15:01:16;30.88;;;13.90;;
49422;SDS011;36998;51.974;20.150;2022-12-07T15:03:42;36.10;;;16.80;;
49422;SDS011;36998;51.974;20.150;2022-12-07T15:06:10;31.10;;;13.50;;
49422;SDS011;36998;51.974;20.150;2022-12-07T15:08:39;35.63;;;14.43;;
49422;SDS011;36998;51.974;20.150;2022-12-07T15:11:05;36.67;;;16.98;;
49422;SDS011;36998;51.974;20.150;2022-12-07T15:13:30;34.30;;;15.60;;
49422;SDS011;36998;51.974;20.150;2022-12-07T15:16:17;32.00;;;16.00;;
49422;SDS011;36998;51.974;20.150;2022-12-07T15:18:45;32.15;;;14.63;;
49422;SDS011;36998;51.974;20.150;2022-12-07T15:21:13;30.50;;;15.23;;
49422;SDS011;36998;51.974;20.150;2022-12-07T15:26:06;27.80;;;14.82;;
49422;SDS011;36998;51.974;20.150;2022-12-07T15:28:33;30.92;;;14.15;;
49422;SDS011;36998;51.974;20.150;2022-12-07T15:30:59;40.60;;;16.92;;
49422;SDS011;36998;51.974;20.150;2022-12-07T15:33:24;30.42;;;14.85;;
49422;SDS011;36998;51.974;20.150;2022-12-07T15:35:50;32.92;;;14.70;;
49422;SDS011;36998;51.974;20.150;2022-12-07T15:38:16;31.15;;;14.43;;
49422;SDS011;36998;51.974;20.150;2022-12-07T15:40:41;33.22;;;15.82;;
49422;SDS011;36998;51.974;20.150;2022-12-07T15:43:10;29.48;;;15.45;;
49422;SDS011;36998;51.974;20.150;2022-12-07T15:45:55;31.05;;;13.48;;
49422;SDS011;36998;51.974;20.150;2022-12-07T15:48:21;31.95;;;15.77;;
49422;SDS011;36998;51.974;20.150;2022-12-07T15:50:46;31.83;;;14.48;;
49422;SDS011;36998;51.974;20.150;2022-12-07T15:53:12;24.50;;;11.80;;
49422;SDS011;36998;51.974;20.150;2022-12-07T15:55:38;26.77;;;14.73;;
49422;SDS011;36998;51.974;20.150;2022-12-07T15:58:05;25.77;;;11.90;;
49422;SDS011;36998;51.974;20.150;2022-12-07T16:00:31;26.02;;;12.50;;
49422;SDS011;36998;51.974;20.150;2022-12-07T16:02:57;22.65;;;10.98;;
49422;SDS011;36998;51.974;20.150;2022-12-07T16:05:23;24.98;;;11.45;;
49422;SDS011;36998;51.974;20.150;2022-12-07T16:07:48;24.38;;;12.60;;
49422;SDS011;36998;51.974;20.150;2022-12-07T16:10:14;28.25;;;12.30;;
49422;SDS011;36998;51.974;20.150;2022-12-07T16:12:40;19.85;;;8.88;;
49422;SDS011;36998;51.974;20.150;2022-12-07T16:15:05;22.15;;;11.05;;
49422;SDS011;36998;51.974;20.150;2022-12-07T16:17:31;25.13;;;12.05;;
49422;SDS011;36998;51.974;20.150;2022-12-07T16:19:57;21.98;;;11.10;;
49422;SDS011;36998;51.974;20.150;2022-12-07T16:22:23;23.05;;;12.75;;
49422;SDS011;36998;51.974;20.150;2022-12-07T16:24:49;24.30;;;11.82;;
49422;SDS011;36998;51.974;20.150;2022-12-07T16:27:15;28.60;;;12.63;;
49422;SDS011;36998;51.974;20.150;2022-12-07T16:29:41;22.42;;;12.13;;
49422;SDS011;36998;51.974;20.150;2022-12-07T16:32:06;20.63;;;10.18;;
49422;SDS011;36998;51.974;20.150;2022-12-07T16:34:32;19.63;;;10.52;;
49422;SDS011;36998;51.974;20.150;2022-12-07T16:36:58;24.17;;;10.73;;
49422;SDS011;36998;51.974;20.150;2022-12-07T16:39:23;20.13;;;10.82;;